createdAt,value
2022-12-16T00:01:39.763Z,22.63
2022-12-16T00:04:07.522Z,23.15
2022-12-16T00:06:36.187Z,24.27
2022-12-16T00:10:00.985Z,23.17
2022-12-16T00:12:47.118Z,23.33
2022-12-16T00:15:15.040Z,24.52
2022-12-16T00:17:42.649Z,24.55
2022-12-16T00:20:10.963Z,25.92
2022-12-16T00:22:38.517Z,26.05
2022-12-16T00:25:08.700Z,26.30
2022-12-16T00:27:36.498Z,28.73
2022-12-16T00:30:04.750Z,28.48
2022-12-16T00:32:36.435Z,27.50
2022-12-16T00:35:04.151Z,27.85
2022-12-16T00:37:32.902Z,29.00
2022-12-16T00:40:01.160Z,30.42
2022-12-16T00:42:29.138Z,27.55
2022-12-16T00:44:56.807Z,27.02
2022-12-16T00:47:24.411Z,25.85
2022-12-16T00:49:52.047Z,25.42
2022-12-16T00:52:19.551Z,26.30
2022-12-16T00:54:47.633Z,27.67
2022-12-16T00:57:15.674Z,25.75
2022-12-16T00:59:43.396Z,26.15
2022-12-16T01:02:11.360Z,25.80
2022-12-16T01:04:39.585Z,25.30
2022-12-16T01:07:07.435Z,26.02
2022-12-16T01:09:38.935Z,26.70
2022-12-16T01:12:09.299Z,25.63
2022-12-16T01:14:37.052Z,28.20
2022-12-16T01:17:06.519Z,32.72
2022-12-16T01:19:34.266Z,34.72
2022-12-16T01:22:01.835Z,35.42
2022-12-16T01:24:29.852Z,34.67
2022-12-16T01:26:57.496Z,35.28
2022-12-16T01:29:25.761Z,35.65
2022-12-16T01:31:53.382Z,34.42
2022-12-16T01:34:24.108Z,35.28
2022-12-16T01:36:51.662Z,32.88
2022-12-16T01:39:19.950Z,32.15
2022-12-16T01:41:47.586Z,30.42
2022-12-16T01:44:17.306Z,30.15
2022-12-16T01:46:56.508Z,30.23
2022-12-16T01:49:26.168Z,28.80
2022-12-16T01:51:55.429Z,29.23
2022-12-16T01:54:25.894Z,28.42
2022-12-16T01:57:01.147Z,29.87
2022-12-16T01:59:29.292Z,31.45
2022-12-16T02:01:57.577Z,27.40
2022-12-16T02:04:25.320Z,28.60
2022-12-16T02:06:52.935Z,30.35
2022-12-16T02:09:22.723Z,28.15
2022-12-16T02:11:59.688Z,19.20
2022-12-16T02:14:58.110Z,27.45
2022-12-16T02:17:35.248Z,27.02
2022-12-16T02:20:14.759Z,28.42
2022-12-16T02:22:51.365Z,29.23
2022-12-16T02:25:51.604Z,27.73
2022-12-16T02:28:29.246Z,27.20
2022-12-16T02:31:20.193Z,26.90
2022-12-16T02:34:08.723Z,30.27
2022-12-16T02:36:57.440Z,29.00
2022-12-16T02:39:36.068Z,31.15
2022-12-16T02:42:30.313Z,31.95
2022-12-16T02:45:01.920Z,31.27
2022-12-16T02:47:30.219Z,31.73
2022-12-16T02:49:57.913Z,32.47
2022-12-16T02:52:27.411Z,28.27
2022-12-16T02:54:58.040Z,30.80
2022-12-16T02:57:31.640Z,31.90
2022-12-16T03:00:09.425Z,31.75
2022-12-16T03:03:02.739Z,33.35
2022-12-16T03:05:42.811Z,32.53
2022-12-16T03:08:16.236Z,33.75
2022-12-16T03:10:53.235Z,36.17
2022-12-16T03:13:23.670Z,36.60
2022-12-16T03:15:52.807Z,34.15
2022-12-16T03:18:20.713Z,31.75
2022-12-16T03:20:52.707Z,33.00
2022-12-16T03:23:39.922Z,33.78
2022-12-16T03:26:10.992Z,33.88
2022-12-16T03:28:45.986Z,34.83
2022-12-16T03:31:26.742Z,36.55
2022-12-16T03:34:04.087Z,27.23
2022-12-16T03:36:32.020Z,34.00
2022-12-16T03:38:59.992Z,34.97
2022-12-16T03:41:27.620Z,32.22
2022-12-16T03:43:55.972Z,41.88
2022-12-16T03:46:23.846Z,43.10
2022-12-16T03:48:52.126Z,41.80
2022-12-16T03:51:21.495Z,38.65
2022-12-16T03:53:49.146Z,33.17
2022-12-16T03:56:16.721Z,33.45
2022-12-16T03:58:47.173Z,35.60
2022-12-16T04:01:15.201Z,34.50
2022-12-16T04:03:42.943Z,33.58
2022-12-16T04:06:11.890Z,34.97
2022-12-16T04:08:39.837Z,34.05
2022-12-16T04:11:27.472Z,32.47
2022-12-16T04:14:13.445Z,34.78
2022-12-16T04:16:59.455Z,34.08
2022-12-16T04:19:50.744Z,33.17
2022-12-16T04:22:44.042Z,30.50
2022-12-16T04:25:19.678Z,29.65
2022-12-16T04:27:47.292Z,30.00
2022-12-16T04:30:22.135Z,31.52
2022-12-16T04:33:19.749Z,31.83
2022-12-16T04:36:05.767Z,31.35
2022-12-16T04:38:51.939Z,31.45
2022-12-16T04:41:38.304Z,31.23
2022-12-16T04:44:24.514Z,31.23
2022-12-16T04:47:12.962Z,30.65
2022-12-16T04:49:59.175Z,32.35
2022-12-16T04:52:45.193Z,31.27
2022-12-16T04:55:31.284Z,32.00
2022-12-16T04:58:18.755Z,30.70
2022-12-16T05:01:05.941Z,28.98
2022-12-16T05:03:53.240Z,33.65
2022-12-16T05:06:39.422Z,32.28
2022-12-16T05:09:25.887Z,36.50
2022-12-16T05:12:12.209Z,32.85
2022-12-16T05:14:58.411Z,34.25
2022-12-16T05:17:44.495Z,33.90
2022-12-16T05:20:30.505Z,40.13
2022-12-16T05:23:16.504Z,55.92
2022-12-16T05:26:03.321Z,48.22
2022-12-16T05:28:50.395Z,44.72
2022-12-16T05:31:36.421Z,51.65
2022-12-16T05:34:22.521Z,50.40
2022-12-16T05:37:08.545Z,44.03
2022-12-16T05:39:54.770Z,37.00
2022-12-16T05:42:40.977Z,36.08
2022-12-16T05:45:27.136Z,37.40
2022-12-16T05:48:13.536Z,38.25
2022-12-16T05:50:59.635Z,37.83
2022-12-16T05:53:45.637Z,34.80
2022-12-16T05:56:31.860Z,34.55
2022-12-16T05:59:18.390Z,34.72
2022-12-16T06:02:04.593Z,34.53
2022-12-16T06:04:50.976Z,34.38
2022-12-16T06:07:37.185Z,32.95
2022-12-16T06:10:23.926Z,34.58
2022-12-16T06:13:10.310Z,34.50
2022-12-16T06:15:56.501Z,35.25
2022-12-16T06:18:43.023Z,36.45
2022-12-16T06:21:29.265Z,37.72
2022-12-16T06:24:15.634Z,38.72
2022-12-16T06:27:01.569Z,37.65
2022-12-16T06:29:47.835Z,42.03
2022-12-16T06:32:33.887Z,42.85
2022-12-16T06:35:20.592Z,45.42
2022-12-16T06:38:07.195Z,54.13
2022-12-16T06:40:53.532Z,45.08
2022-12-16T06:43:42.418Z,46.65
2022-12-16T06:46:28.795Z,50.33
2022-12-16T06:49:22.761Z,49.50
2022-12-16T06:52:08.920Z,53.03
2022-12-16T06:55:02.770Z,53.30
2022-12-16T06:57:49.265Z,53.97
2022-12-16T07:00:35.478Z,60.95
2022-12-16T07:03:23.416Z,51.83
2022-12-16T07:06:30.148Z,49.50
